createdAt,value
2017-06-21T00:00:06.094Z,1002.02
2017-06-21T00:02:38.384Z,1002.11
2017-06-21T00:06:38.770Z,1002.19
2017-06-21T00:09:03.527Z,1002.22
2017-06-21T00:11:28.197Z,1002.21
2017-06-21T00:14:08.578Z,1002.2
2017-06-21T00:16:34.192Z,1002.22
2017-06-21T00:18:59.111Z,1002.24
2017-06-21T00:21:23.790Z,1002.2
2017-06-21T00:23:46.689Z,1002.18
2017-06-21T00:26:03.014Z,1002.13
2017-06-21T00:28:29.589Z,1002.17
2017-06-21T00:30:45.787Z,1002.17
2017-06-21T00:33:01.916Z,1002.16
2017-06-21T00:35:26.574Z,1002.17
2017-06-21T00:37:51.272Z,1002.15
2017-06-21T00:40:15.980Z,1002.17
2017-06-21T00:42:40.566Z,1002.1
2017-06-21T00:44:42.095Z,1002.14
2017-06-21T00:47:13.474Z,1002.19
2017-06-21T00:49:38.167Z,1002.18
2017-06-21T00:52:02.863Z,1002.11
2017-06-21T00:54:27.435Z,1002.11
2017-06-21T00:56:54.099Z,1002.09
2017-06-21T00:59:26.474Z,1002.07
2017-06-21T01:01:52.097Z,1002.09
2017-06-21T01:04:18.733Z,1002.05
2017-06-21T01:06:36.907Z,1002.03
2017-06-21T01:09:01.561Z,1002.06
2017-06-21T01:11:27.207Z,1002.07
2017-06-21T01:13:51.776Z,1002.1
2017-06-21T01:16:24.985Z,1002.11
2017-06-21T01:18:49.677Z,1002.14
2017-06-21T01:21:15.291Z,1002.15
2017-06-21T01:23:17.311Z,1002.15
2017-06-21T01:25:35.501Z,1002.16
2017-06-21T01:28:00.094Z,1002.15
2017-06-21T01:30:24.788Z,1002.11
2017-06-21T01:32:57.165Z,1002.1
2017-06-21T01:35:21.861Z,1002.11
2017-06-21T01:37:47.571Z,1002.11
2017-06-21T01:40:20.172Z,1002.08
2017-06-21T01:42:52.645Z,1002.06
2017-06-21T01:45:34.131Z,1002.06
2017-06-21T01:47:59.745Z,1002.13
2017-06-21T01:50:26.295Z,1002.08
2017-06-21T01:52:50.889Z,1002.08
2017-06-21T01:55:07.015Z,1002.01
2017-06-21T01:57:32.586Z,1002.04
2017-06-21T01:59:58.210Z,1002.07
2017-06-21T02:02:29.664Z,1002
2017-06-21T02:04:54.257Z,1002
2017-06-21T02:07:26.638Z,1001.96
2017-06-21T02:10:00.135Z,1001.96
2017-06-21T02:12:24.733Z,1001.97
2017-06-21T02:14:49.225Z,1001.96
2017-06-21T02:17:29.699Z,1001.99
2017-06-21T02:19:55.312Z,1001.96
2017-06-21T02:22:36.691Z,1001.97
2017-06-21T02:25:16.143Z,1001.96
2017-06-21T02:27:48.631Z,1001.98
2017-06-21T02:30:19.662Z,1001.96
2017-06-21T02:32:46.197Z,1001.96
2017-06-21T02:35:12.758Z,1002
2017-06-21T02:37:23.297Z,1001.99
2017-06-21T02:39:48.817Z,1001.97
2017-06-21T02:42:20.180Z,1001.98
2017-06-21T02:45:00.640Z,1001.98
2017-06-21T02:47:25.129Z,1001.97
2017-06-21T02:49:41.217Z,1001.91
2017-06-21T02:51:57.191Z,1001.92
2017-06-21T02:54:13.192Z,1001.89
2017-06-21T02:56:44.658Z,1001.93
2017-06-21T02:59:08.679Z,1001.96
2017-06-21T03:01:24.627Z,1001.97
2017-06-21T03:03:49.112Z,1002.01
2017-06-21T03:06:20.166Z,1001.99
2017-06-21T03:08:44.654Z,1002.01
2017-06-21T03:10:54.686Z,1002
2017-06-21T03:13:20.220Z,1002.05
2017-06-21T03:15:51.568Z,1002.01
2017-06-21T03:18:16.063Z,1002.07
2017-06-21T03:20:40.543Z,1002.13
2017-06-21T03:23:13.547Z,1002.11
2017-06-21T03:25:38.957Z,1002.17
2017-06-21T03:27:40.549Z,1002.22
2017-06-21T03:30:04.283Z,1002.29
2017-06-21T03:32:29.687Z,1002.34
2017-06-21T03:34:54.078Z,1002.32
2017-06-21T03:37:18.459Z,1002.27
2017-06-21T03:39:49.828Z,1002.26
2017-06-21T03:42:14.221Z,1002.26
2017-06-21T03:44:40.662Z,1002.32
2017-06-21T03:47:19.806Z,1002.33
2017-06-21T03:49:46.228Z,1002.33
2017-06-21T03:52:10.723Z,1002.35
2017-06-21T03:54:51.803Z,1002.32
2017-06-21T03:57:23.753Z,1002.33
2017-06-21T03:59:49.185Z,1002.37
2017-06-21T04:02:21.243Z,1002.41
2017-06-21T04:04:51.843Z,1002.34
2017-06-21T04:07:17.313Z,1002.41
2017-06-21T04:09:42.819Z,1002.45
2017-06-21T04:12:07.299Z,1002.46
2017-06-21T04:14:32.828Z,1002.48
2017-06-21T04:16:57.306Z,1002.48
2017-06-21T04:19:29.306Z,1002.47
2017-06-21T04:21:53.789Z,1002.54
2017-06-21T04:24:18.393Z,1002.61
2017-06-21T04:26:43.004Z,1002.7
2017-06-21T04:29:07.716Z,1002.72
2017-06-21T04:31:30.911Z,1002.68
2017-06-21T04:33:55.923Z,1002.84
2017-06-21T04:36:27.906Z,1002.82
2017-06-21T04:38:54.070Z,1002.85
2017-06-21T04:41:20.306Z,1002.84
2017-06-21T04:43:45.642Z,1002.93
2017-06-21T04:46:11.065Z,1002.91
2017-06-21T04:48:28.090Z,1002.96
2017-06-21T04:50:53.756Z,1003
2017-06-21T04:53:19.420Z,1003.01
2017-06-21T04:55:47.228Z,1003.08
2017-06-21T04:58:14.099Z,1003.06
2017-06-21T05:00:41.998Z,1003.1
2017-06-21T05:03:08.952Z,1003.14
2017-06-21T05:05:41.638Z,1003.07
2017-06-21T05:08:08.694Z,1003.1
2017-06-21T05:12:10.607Z,1003.01
2017-06-21T05:14:36.691Z,1003.07
2017-06-21T05:18:38.490Z,1003.1
2017-06-21T05:22:31.708Z,1003.15
2017-06-21T05:24:58.702Z,1003.17
2017-06-21T05:27:32.534Z,1003.15
2017-06-21T05:29:58.641Z,1003.13
2017-06-21T05:32:31.558Z,1003.16
2017-06-21T05:34:59.626Z,1003.17
2017-06-21T05:39:17.809Z,1003.2
2017-06-21T05:41:45.949Z,1003.34
2017-06-21T05:44:18.228Z,1003.3
2017-06-21T05:46:44.467Z,1003.34
2017-06-21T05:49:09.734Z,1003.27
2017-06-21T05:51:36.029Z,1003.22
2017-06-21T05:54:02.364Z,1003.27
2017-06-21T05:56:20.105Z,1003.25
2017-06-21T06:01:13.016Z,1003.26
2017-06-21T06:03:39.311Z,1003.34
2017-06-21T06:06:05.522Z,1003.33
2017-06-21T06:08:23.091Z,1003.33
2017-06-21T06:10:49.299Z,1003.32
2017-06-21T06:12:51.217Z,1003.39
2017-06-21T06:15:17.493Z,1003.42
2017-06-21T06:17:43.725Z,1003.45
2017-06-21T06:20:10.068Z,1003.39
2017-06-21T06:22:36.404Z,1003.41
2017-06-21T06:24:45.561Z,1003.53
2017-06-21T06:27:11.875Z,1003.46
2017-06-21T06:29:38.207Z,1003.47
2017-06-21T06:32:04.558Z,1003.53
2017-06-21T06:34:30.998Z,1003.49
2017-06-21T06:36:57.440Z,1003.52
2017-06-21T06:39:15.305Z,1003.48
2017-06-21T06:41:41.785Z,1003.46
2017-06-21T06:44:08.213Z,1003.43
2017-06-21T06:46:34.610Z,1003.37
2017-06-21T06:48:36.574Z,1003.41
2017-06-21T06:51:02.907Z,1003.43
2017-06-21T06:53:29.162Z,1003.48
2017-06-21T06:55:55.310Z,1003.47
2017-06-21T06:58:21.452Z,1003.45
2017-06-21T07:00:38.994Z,1003.4
2017-06-21T07:02:40.852Z,1003.43
2017-06-21T07:05:06.873Z,1003.44
2017-06-21T07:07:00.131Z,1003.45
2017-06-21T07:09:17.530Z,1003.42
2017-06-21T07:11:43.442Z,1003.44
2017-06-21T07:14:09.337Z,1003.51
2017-06-21T07:16:35.196Z,1003.56
2017-06-21T07:18:52.544Z,1003.56
2017-06-21T07:21:09.946Z,1003.51
2017-06-21T07:23:35.964Z,1003.56
2017-06-21T07:26:02.014Z,1003.51
2017-06-21T07:28:04.027Z,1003.57
2017-06-21T07:30:30.162Z,1003.57
2017-06-21T07:32:56.306Z,1003.55
2017-06-21T07:35:22.445Z,1003.54
2017-06-21T07:37:48.580Z,1003.54
2017-06-21T07:40:14.717Z,1003.53
2017-06-21T07:42:40.872Z,1003.53
2017-06-21T07:45:07.069Z,1003.52
2017-06-21T07:47:33.247Z,1003.49
2017-06-21T07:49:35.169Z,1003.53
2017-06-21T07:52:01.412Z,1003.47
2017-06-21T07:54:10.495Z,1003.49
2017-06-21T07:56:36.696Z,1003.41
2017-06-21T07:58:54.345Z,1003.42
2017-06-21T08:01:20.554Z,1003.41
2017-06-21T08:03:46.789Z,1003.42
2017-06-21T08:06:13.021Z,1003.39
2017-06-21T08:08:39.258Z,1003.42
2017-06-21T08:11:05.562Z,1003.46
2017-06-21T08:13:31.866Z,1003.43
2017-06-21T08:15:49.658Z,1003.44
2017-06-21T08:18:07.453Z,1003.41
2017-06-21T08:20:33.848Z,1003.48
2017-06-21T08:23:00.269Z,1003.45
2017-06-21T08:25:26.672Z,1003.44
2017-06-21T08:27:53.102Z,1003.44
2017-06-21T08:29:46.609Z,1003.42
2017-06-21T08:32:13.101Z,1003.45
2017-06-21T08:34:39.532Z,1003.44
2017-06-21T08:36:57.389Z,1003.38
2017-06-21T08:38:59.374Z,1003.38
2017-06-21T08:41:10.005Z,1003.42
2017-06-21T08:43:36.480Z,1003.38
2017-06-21T08:46:02.928Z,1003.41
2017-06-21T08:48:29.370Z,1003.41
2017-06-21T08:50:55.808Z,1003.4
2017-06-21T08:53:22.282Z,1003.41
2017-06-21T08:55:48.827Z,1003.42
2017-06-21T08:58:06.777Z,1003.42
2017-06-21T09:00:33.357Z,1003.42
2017-06-21T09:02:35.366Z,1003.39
2017-06-21T09:05:01.985Z,1003.35
2017-06-21T09:07:28.593Z,1003.34
2017-06-21T09:09:55.220Z,1003.35
2017-06-21T09:12:13.267Z,1003.34
2017-06-21T09:14:39.906Z,1003.34
2017-06-21T09:17:06.516Z,1003.33
2017-06-21T09:19:33.126Z,1003.34
2017-06-21T09:21:59.721Z,1003.34
2017-06-21T09:24:26.291Z,1003.33
2017-06-21T09:26:44.279Z,1003.29
2017-06-21T09:29:02.237Z,1003.27
2017-06-21T09:31:04.233Z,1003.28
2017-06-21T09:33:30.771Z,1003.28
2017-06-21T09:35:48.689Z,1003.25
2017-06-21T09:38:06.555Z,1003.25
2017-06-21T09:40:24.424Z,1003.23
2017-06-21T09:42:33.707Z,1003.23
2017-06-21T09:44:51.559Z,1003.28
2017-06-21T09:47:17.981Z,1003.27
2017-06-21T09:49:44.361Z,1003.26
2017-06-21T09:52:10.772Z,1003.26
2017-06-21T09:54:37.165Z,1003.2
2017-06-21T09:57:03.585Z,1003.25
2017-06-21T09:58:56.985Z,1003.2
2017-06-21T10:01:23.398Z,1003.25
2017-06-21T10:03:49.780Z,1003.24
2017-06-21T10:06:16.167Z,1003.23
2017-06-21T10:08:33.939Z,1003.23
2017-06-21T10:11:00.261Z,1003.24
2017-06-21T10:13:26.560Z,1003.23
2017-06-21T10:15:52.798Z,1003.2
2017-06-21T10:18:18.960Z,1003.23
2017-06-21T10:20:45.102Z,1003.21
2017-06-21T10:23:11.254Z,1003.17
2017-06-21T10:25:37.293Z,1003.18
2017-06-21T10:28:03.338Z,1003.18
2017-06-21T10:30:20.813Z,1003.18
2017-06-21T10:32:46.834Z,1003.18
2017-06-21T10:35:12.822Z,1003.14
2017-06-21T10:37:38.771Z,1003.15
2017-06-21T10:39:56.096Z,1003.13
2017-06-21T10:42:13.411Z,1003.07
2017-06-21T10:44:39.274Z,1003.06
2017-06-21T10:47:05.123Z,1003.08
2017-06-21T10:49:30.998Z,1003.08
2017-06-21T10:51:56.823Z,1003.1
2017-06-21T10:54:23.627Z,1003.03
2017-06-21T10:56:32.327Z,1003.06
2017-06-21T10:58:58.080Z,1003.03
2017-06-21T11:01:23.851Z,1003.02
2017-06-21T11:03:49.616Z,1002.91
2017-06-21T11:06:06.865Z,1002.88
2017-06-21T11:08:32.589Z,1002.87
2017-06-21T11:10:49.811Z,1002.87
2017-06-21T11:13:15.524Z,1002.79
2017-06-21T11:15:41.219Z,1002.79
2017-06-21T11:18:06.903Z,1002.7
2017-06-21T11:20:32.626Z,1002.69
2017-06-21T11:22:58.298Z,1002.68
2017-06-21T11:25:23.939Z,1002.73
2017-06-21T11:27:41.054Z,1002.69
2017-06-21T11:30:06.695Z,1002.71
2017-06-21T11:32:32.341Z,1002.64
2017-06-21T11:34:49.444Z,1002.58
2017-06-21T11:37:15.046Z,1002.54
2017-06-21T11:39:08.306Z,1002.51
2017-06-21T11:41:33.968Z,1002.5
2017-06-21T11:43:59.606Z,1002.53
2017-06-21T11:46:25.187Z,1002.49
2017-06-21T11:48:50.781Z,1002.48
2017-06-21T11:51:16.352Z,1002.5
2017-06-21T11:53:41.970Z,1002.47
2017-06-21T11:56:07.564Z,1002.46
2017-06-21T11:58:24.618Z,1002.42
2017-06-21T12:00:50.215Z,1002.4
2017-06-21T12:03:15.826Z,1002.39
2017-06-21T12:05:41.463Z,1002.36
2017-06-21T12:07:51.860Z,1002.35
2017-06-21T12:10:17.446Z,1002.32
2017-06-21T12:12:42.969Z,1002.31
2017-06-21T12:15:08.549Z,1002.27
2017-06-21T12:17:34.114Z,1002.27
2017-06-21T12:19:59.692Z,1002.24
2017-06-21T12:24:01.232Z,1002.16
2017-06-21T12:26:26.868Z,1002.12
2017-06-21T12:28:52.469Z,1002.13
2017-06-21T12:31:18.063Z,1002.09
2017-06-21T12:33:43.643Z,1002.08
2017-06-21T12:36:09.199Z,1002.13
2017-06-21T12:38:17.748Z,1002.12
2017-06-21T12:40:20.009Z,1002.12
2017-06-21T12:42:45.635Z,1002
2017-06-21T12:45:11.237Z,1001.99
2017-06-21T12:47:36.844Z,1001.97
2017-06-21T12:49:53.853Z,1001.95
2017-06-21T12:52:10.874Z,1001.92
2017-06-21T12:54:12.654Z,1001.91
2017-06-21T12:56:38.273Z,1001.88
2017-06-21T12:58:55.302Z,1001.87
2017-06-21T13:01:12.351Z,1001.88
2017-06-21T13:03:37.948Z,1001.87
2017-06-21T13:06:03.515Z,1001.87
2017-06-21T13:08:29.055Z,1001.87
2017-06-21T13:10:54.569Z,1001.86
2017-06-21T13:13:20.145Z,1001.85
2017-06-21T13:15:45.677Z,1001.85
2017-06-21T13:18:11.220Z,1001.86
2017-06-21T13:20:04.438Z,1001.8
2017-06-21T13:22:29.991Z,1001.77
2017-06-21T13:24:55.499Z,1001.74
2017-06-21T13:27:12.469Z,1001.74
2017-06-21T13:29:38.022Z,1001.72
2017-06-21T13:32:03.569Z,1001.69
2017-06-21T13:34:29.089Z,1001.71
2017-06-21T13:36:54.642Z,1001.69
2017-06-21T13:39:20.157Z,1001.68
2017-06-21T13:41:45.721Z,1001.63
2017-06-21T13:44:02.754Z,1001.58
2017-06-21T13:46:28.326Z,1001.58
2017-06-21T13:48:53.855Z,1001.49
2017-06-21T13:51:19.378Z,1001.47
2017-06-21T13:53:44.905Z,1001.46
2017-06-21T13:55:55.304Z,1001.41
2017-06-21T13:58:20.870Z,1001.44
2017-06-21T14:00:37.902Z,1001.42
2017-06-21T14:02:54.910Z,1001.38
2017-06-21T14:05:20.482Z,1001.37
2017-06-21T14:07:46.041Z,1001.38
2017-06-21T14:10:11.642Z,1001.4
2017-06-21T14:12:28.693Z,1001.36
2017-06-21T14:14:54.237Z,1001.36
2017-06-21T14:17:11.279Z,1001.37
2017-06-21T14:19:36.811Z,1001.35
2017-06-21T14:21:53.813Z,1001.2
2017-06-21T14:24:19.379Z,1001.31
2017-06-21T14:26:44.900Z,1001.23
2017-06-21T14:29:10.448Z,1001.25
2017-06-21T14:31:27.459Z,1001.24
2017-06-21T14:33:44.474Z,1001.21
2017-06-21T14:36:09.974Z,1001.18
2017-06-21T14:38:35.469Z,1001.16
2017-06-21T14:41:00.971Z,1001.14
2017-06-21T14:43:26.476Z,1001.07
2017-06-21T14:45:19.705Z,1001.06
2017-06-21T14:47:45.252Z,1001.05
2017-06-21T14:50:10.756Z,1001.06
2017-06-21T14:52:36.282Z,1001.1
2017-06-21T14:55:01.801Z,1001.07
2017-06-21T14:57:27.315Z,1001.1
2017-06-21T14:59:52.847Z,1001.07
2017-06-21T15:02:18.381Z,1001.09
2017-06-21T15:04:43.926Z,1001.03
2017-06-21T15:07:00.929Z,1000.99
2017-06-21T15:09:26.569Z,1000.97
2017-06-21T15:11:52.061Z,1000.93
2017-06-21T15:14:17.567Z,1000.92
2017-06-21T15:16:17.615Z,1000.89
2017-06-21T15:18:43.128Z,1000.88
2017-06-21T15:21:08.618Z,1000.92
2017-06-21T15:23:34.121Z,1000.94
2017-06-21T15:25:59.569Z,1000.87
2017-06-21T15:28:25.082Z,1000.86
2017-06-21T15:30:33.542Z,1000.84
2017-06-21T15:33:00.143Z,1000.87
2017-06-21T15:35:25.668Z,1000.86
2017-06-21T15:37:51.277Z,1000.91
2017-06-21T15:40:16.800Z,1000.94
2017-06-21T15:42:42.406Z,1000.93
2017-06-21T15:45:07.926Z,1000.94
2017-06-21T15:47:33.547Z,1000.97
2017-06-21T15:50:00.125Z,1000.97
2017-06-21T15:52:25.705Z,1000.94
2017-06-21T15:54:36.071Z,1000.93
2017-06-21T15:57:01.681Z,1000.91
2017-06-21T15:59:19.514Z,1000.92
2017-06-21T16:01:44.209Z,1000.93
2017-06-21T16:04:09.746Z,1000.9
2017-06-21T16:06:37.297Z,1000.94
2017-06-21T16:08:54.304Z,1000.94
2017-06-21T16:11:20.050Z,1000.94
2017-06-21T16:13:45.432Z,1000.93
2017-06-21T16:16:11.320Z,1000.95
2017-06-21T16:18:28.364Z,1000.95
2017-06-21T16:20:31.608Z,1000.96
2017-06-21T16:22:58.108Z,1000.95
2017-06-21T16:25:23.934Z,1000.95
2017-06-21T16:27:50.166Z,1000.89
2017-06-21T16:29:55.317Z,1000.88
2017-06-21T16:32:21.851Z,1000.87
2017-06-21T16:34:47.370Z,1000.86
2017-06-21T16:37:04.236Z,1000.87
2017-06-21T16:39:33.459Z,1000.92
2017-06-21T16:41:58.879Z,1000.92
2017-06-21T16:44:33.314Z,1000.85
2017-06-21T16:46:58.831Z,1000.89
2017-06-21T16:49:30.796Z,1000.81
2017-06-21T16:51:56.204Z,1000.86
2017-06-21T16:54:21.625Z,1000.84
2017-06-21T16:56:23.821Z,1000.86
2017-06-21T16:58:50.324Z,1000.85
2017-06-21T17:01:07.229Z,1000.88
2017-06-21T17:03:24.130Z,1000.89
2017-06-21T17:05:50.605Z,1000.85
2017-06-21T17:08:16.227Z,1000.94
2017-06-21T17:10:41.708Z,1000.94
2017-06-21T17:13:07.121Z,1000.94
2017-06-21T17:15:11.380Z,1000.92
2017-06-21T17:17:36.839Z,1000.98
2017-06-21T17:20:02.264Z,1001
2017-06-21T17:22:19.163Z,1000.96
2017-06-21T17:24:20.866Z,1000.96
2017-06-21T17:26:46.351Z,1000.97
2017-06-21T17:29:03.249Z,1000.97
2017-06-21T17:31:28.679Z,1000.99
2017-06-21T17:33:54.093Z,1000.89
2017-06-21T17:36:19.502Z,1000.91
2017-06-21T17:38:44.915Z,1000.88
2017-06-21T17:41:01.851Z,1000.9
2017-06-21T17:43:27.238Z,1000.88
2017-06-21T17:45:37.593Z,1000.87
2017-06-21T17:47:57.803Z,1000.91
2017-06-21T17:50:23.231Z,1000.9
2017-06-21T17:52:48.641Z,1000.93
2017-06-21T17:55:14.019Z,1000.92
2017-06-21T17:57:40.461Z,1000.97
2017-06-21T18:00:05.879Z,1000.98
2017-06-21T18:02:22.824Z,1000.96
2017-06-21T18:04:48.116Z,1000.96
2017-06-21T18:07:13.344Z,1000.96
2017-06-21T18:09:38.617Z,1000.93
2017-06-21T18:12:03.931Z,1000.93
2017-06-21T18:14:29.238Z,1000.95
2017-06-21T18:16:46.044Z,1000.93
2017-06-21T18:19:11.362Z,1000.97
2017-06-21T18:21:38.707Z,1000.93
2017-06-21T18:24:10.823Z,1000.98
2017-06-21T18:26:36.106Z,1000.91
2017-06-21T18:28:53.836Z,1000.91
2017-06-21T18:30:55.516Z,1000.87
2017-06-21T18:33:21.816Z,1000.89
2017-06-21T18:35:47.141Z,1000.88
2017-06-21T18:38:20.353Z,1000.88
2017-06-21T18:40:45.630Z,1000.9
2017-06-21T18:43:10.934Z,1000.93
2017-06-21T18:45:37.163Z,1000.92
2017-06-21T18:48:02.307Z,1000.97
2017-06-21T18:49:55.525Z,1000.99
2017-06-21T18:52:21.794Z,1000.98
2017-06-21T18:54:32.535Z,1001
2017-06-21T18:56:57.837Z,1001.02
2017-06-21T18:59:23.047Z,1001.06
2017-06-21T19:01:48.203Z,1001.1
2017-06-21T19:04:14.389Z,1001.09
2017-06-21T19:06:39.601Z,1001.13
2017-06-21T19:09:04.805Z,1001.15
2017-06-21T19:11:30.933Z,1001.12
2017-06-21T19:13:47.695Z,1001.15
2017-06-21T19:16:12.841Z,1001.14
2017-06-21T19:18:38.051Z,1001.21
2017-06-21T19:21:03.182Z,1001.23
2017-06-21T19:23:05.630Z,1001.28
2017-06-21T19:25:30.847Z,1001.3
2017-06-21T19:27:55.947Z,1001.33
2017-06-21T19:30:21.054Z,1001.32
2017-06-21T19:32:48.246Z,1001.35
2017-06-21T19:34:58.341Z,1001.34
2017-06-21T19:37:23.488Z,1001.36
2017-06-21T19:39:40.723Z,1001.37
2017-06-21T19:42:05.483Z,1001.46
2017-06-21T19:44:31.118Z,1001.5
2017-06-21T19:46:47.609Z,1001.52
2017-06-21T19:49:12.715Z,1001.59
2017-06-21T19:51:29.313Z,1001.63
2017-06-21T19:53:54.412Z,1001.63
2017-06-21T19:56:20.536Z,1001.65
2017-06-21T19:58:45.657Z,1001.67
2017-06-21T20:01:11.804Z,1001.68
2017-06-21T20:03:36.883Z,1001.71
2017-06-21T20:06:02.033Z,1001.73
2017-06-21T20:08:27.140Z,1001.76
2017-06-21T20:10:52.216Z,1001.79
2017-06-21T20:13:17.317Z,1001.81
2017-06-21T20:16:54.904Z,1001.82
2017-06-21T20:19:21.076Z,1001.81
2017-06-21T20:21:44.233Z,1001.81
2017-06-21T20:24:09.219Z,1001.85
2017-06-21T20:26:19.873Z,1001.86
2017-06-21T20:28:21.780Z,1001.88
2017-06-21T20:30:46.859Z,1001.9
2017-06-21T20:33:04.377Z,1001.9
2017-06-21T20:35:29.485Z,1001.9
2017-06-21T20:37:55.491Z,1001.92
2017-06-21T20:40:20.622Z,1001.94
2017-06-21T20:42:52.267Z,1001.95
2017-06-21T20:45:17.277Z,1001.98
2017-06-21T20:47:42.384Z,1001.96
2017-06-21T20:50:08.410Z,1001.99
2017-06-21T20:52:26.980Z,1002.01
2017-06-21T20:54:51.964Z,1002.05
2017-06-21T20:57:16.975Z,1002.11
2017-06-21T20:59:34.507Z,1002.14
2017-06-21T21:01:59.496Z,1002.15
2017-06-21T21:04:24.491Z,1002.15
2017-06-21T21:06:34.666Z,1002.18
2017-06-21T21:08:59.667Z,1002.22
2017-06-21T21:11:24.634Z,1002.22
2017-06-21T21:13:41.075Z,1002.26
2017-06-21T21:16:06.082Z,1002.25
2017-06-21T21:18:31.079Z,1002.25
2017-06-21T21:20:56.092Z,1002.27
2017-06-21T21:23:21.083Z,1002.29
2017-06-21T21:25:46.088Z,1002.27
2017-06-21T21:28:02.692Z,1002.22
2017-06-21T21:30:27.580Z,1002.3
2017-06-21T21:32:53.612Z,1002.31
2017-06-21T21:35:18.615Z,1002.31
2017-06-21T21:37:35.057Z,1002.27
2017-06-21T21:39:59.920Z,1002.29
2017-06-21T21:42:24.814Z,1002.31
2017-06-21T21:44:49.708Z,1002.38
2017-06-21T21:47:06.135Z,1002.38
2017-06-21T21:49:08.217Z,1002.39
2017-06-21T21:51:33.684Z,1002.31
2017-06-21T21:53:58.075Z,1002.31
2017-06-21T21:56:00.137Z,1002.31
2017-06-21T21:58:25.038Z,1002.28
2017-06-21T22:00:41.459Z,1002.27
2017-06-21T22:03:06.333Z,1002.2
2017-06-21T22:05:31.243Z,1002.22
2017-06-21T22:07:56.051Z,1002.24
2017-06-21T22:10:20.946Z,1002.2
2017-06-21T22:12:45.842Z,1002.14
2017-06-21T22:15:03.157Z,1002.17
2017-06-21T22:17:27.968Z,1002.1
2017-06-21T22:19:52.752Z,1002.13
2017-06-21T22:22:03.574Z,1002.15
2017-06-21T22:24:28.429Z,1002.17
2017-06-21T22:26:53.225Z,1002.16
2017-06-21T22:29:18.047Z,1002.19
2017-06-21T22:31:20.106Z,1002.17
2017-06-21T22:33:44.892Z,1002.15
2017-06-21T22:36:09.684Z,1002.12
2017-06-21T22:38:34.496Z,1002.15
2017-06-21T22:40:50.702Z,1002.12
2017-06-21T22:43:15.464Z,1002.11
2017-06-21T22:45:26.065Z,1002.14
2017-06-21T22:47:50.832Z,1002.13
2017-06-21T22:50:15.536Z,1002.13
2017-06-21T22:52:40.343Z,1002.11
2017-06-21T22:55:05.142Z,1002.1
2017-06-21T22:57:21.362Z,1002.09
2017-06-21T22:59:46.163Z,1002.09
2017-06-21T23:02:10.919Z,1002.09
2017-06-21T23:04:35.639Z,1002.07
2017-06-21T23:06:37.674Z,1002.05
2017-06-21T23:09:02.398Z,1002.04
2017-06-21T23:11:18.714Z,1002.04
2017-06-21T23:13:21.810Z,1002.05
2017-06-21T23:15:46.568Z,1002.04
2017-06-21T23:18:11.290Z,1002.09
2017-06-21T23:20:36.984Z,1002.08
2017-06-21T23:23:01.676Z,1002.11
2017-06-21T23:25:26.370Z,1002.12
2017-06-21T23:27:51.079Z,1002.13
2017-06-21T23:30:15.875Z,1002.14
2017-06-21T23:32:40.572Z,1002.09
2017-06-21T23:35:05.270Z,1002.1
2017-06-21T23:37:29.938Z,1002.1
2017-06-21T23:39:54.654Z,1002.1
2017-06-21T23:42:19.347Z,1002.14
2017-06-21T23:44:43.948Z,1002.12
2017-06-21T23:47:08.682Z,1002.11
2017-06-21T23:49:24.979Z,1002.16
2017-06-21T23:51:41.270Z,1002.13
2017-06-21T23:54:05.950Z,1002.11
2017-06-21T23:56:30.620Z,1002.15
2017-06-21T23:58:32.667Z,1002.11
